Tiempo atmosférico en la estación meteorológica de Almadén, Ciudad Real (535 m.)



Fecha
DESCASC
Temp. máxima en grados centígrados (hora)
DESCASC
Temp. mínima en grados centígrados (hora)
DESCASC
Temp. media en grados centígrados
DESCASC
Racha de viento máxima en m/sg (hora)
DESCASC
Velocidad máxima media en intervalos de 10 minutos(hora)
DESCASC
Precipitaciones diarias en mm
DESCASC
Precipitaciones de 00:00 a 06:00 en mm
DESCASC
Precipitaciones de 06:00 a 12:00 en mm
DESCASC
Precipitaciones de 12:00 a 18:00 en mm
DESCASC
Precipitaciones de 18:00 a 24:00 en mm
DESCASC
16-01-2020 17 (14:50) 6.6 (08:40) 11.8 10 (17:10) 6.39 (16:20) 0 0 0 0 0
15-01-2020 12.2 (17:10) 5.1 (08:40) 8.6 8.89 (10:40) 5.28 (10:50) 0 0 0 0 0
14-01-2020 11.4 (16:10) 0.2 (08:50) 5.8 7.78 (20:30) 5.28 (20:30) 0 0 0 0 0
13-01-2020 12.7 (15:50) 0.8 (08:20) 6.7 5 (14:50) 3.06 (14:50) 0 0 0 0 0
12-01-2020 15.3 (16:40) 0.8 (00:00) 8.1 3.33 (16:10) 1.94 (14:40) 0 0 0 0 0
11-01-2020 14 (15:00) 1.8 (00:00) 7.9 4.44 (16:10) 2.5 (15:50) 0 0 0 0 0
10-01-2020 13 (15:00) 6 (00:00) 9.5 11.11 (17:30) 6.11 (17:30) 0 0 0 0 0
09-01-2020 14.5 (15:10) 3 (00:00) 8.8 4.44 (12:20) 2.78 (13:10) 0 0 0 0 0
08-01-2020 17.9 (15:50) 2.6 (00:00) 10.2 2.78 (14:40) 1.94 (14:40) 0 0 0 0 0
07-01-2020 18.5 (17:00) 4.2 (00:00) 11.3 2.78 (13:30) 1.39 (13:30) 0 0 0 0 0
06-01-2020 16.5 (16:50) 2.8 (00:00) 9.6 2.78 (14:20) 1.67 (14:20) 0 0 0 0 0
05-01-2020 16.2 (15:50) 3.3 (00:00) 9.8 3.33 (15:10) 1.94 (06:30) 0 0 0 0 0
04-01-2020 12.9 (16:10) 3.3 (00:00) 8.1 5.56 (14:40) 3.33 (13:10) 0 0 0 0 0
03-01-2020 9.5 (13:30) 5.3 (00:00) 7.4 3.06 (19:10) 1.67 (19:10) 0 0 0 0 0
02-01-2020 16.5 (15:50) 3 (00:00) 9.8 3.61 (14:40) 2.22 (14:40) 0 0 0 0 0
01-01-2020 17.8 (16:00) 2.4 (00:00) 10.1 2.78 (15:20) 1.11 (06:40) 0 0 0 0 0
31-12-2019 16.4 (16:00) 1.6 (00:00) 9 2.78 (12:30) 1.39 (07:30) 0 0 0 0 0
30-12-2019 -- (--) -- (--) -- -- (--) -- (--) -- 0 0 -- 0
29-12-2019 18.8 (16:10) 5.2 (00:00) 12 3.89 (19:00) 2.22 (14:50) 0 0 0 0 0
28-12-2019 21.4 (15:50) 7.2 (00:00) 14.3 3.61 (12:30) 2.22 (12:00) 0 0 0 0 0
27-12-2019 19.3 (15:20) 7.8 (00:00) 13.5 4.44 (05:10) 2.22 (05:10) 0 0 0 0 0
26-12-2019 17.1 (16:40) 7.3 (00:00) 12.2 3.89 (19:20) 2.5 (21:00) 0 0 0 0 0
25-12-2019 20.4 (15:20) 8.1 (00:00) 14.3 2.5 (15:30) 1.67 (01:40) 0 0 0 0 0
24-12-2019 21.9 (15:30) 7 (00:00) 14.4 3.89 (14:40) 2.22 (14:40) 0 0 0 0 0
23-12-2019 16.9 (16:10) 7.7 (00:00) 12.3 5.83 (00:20) 2.78 (00:20) 0 0 0 0 0
22-12-2019 15.1 (15:30) 11.1 (00:00) 13.1 16.67 (01:00) 10 (00:20) 0 0 0 0 0
21-12-2019 16.6 (15:30) 12.5 (00:00) 14.6 21.11 (17:30) 11.11 (17:10) 9.2 5.6 1.2 2.4 0
20-12-2019 15.3 (19:00) 13.2 (00:00) 14.3 28.33 (01:40) 13.61 (01:40) 13.2 5.4 6.2 0.4 1.2

Gráficas

Temp. máximas Temp. mínimas Temp. medias Precipitaciones Rachas de viento máximas Velocidades máximas media en intervalos de 10 minutos

Datos horarios

Fecha y hora oficial Temperatura (ºC) Velocidad del viento (km/h) Dirección del viento Racha (km/h) Dirección de racha Precipitación (mm) Presión (hPa) Tendencia (hPa) Humedad (%)
2020-01-18 23:00:00 10.5 22 Noroeste 52 Oeste 0 -- -- 84
2020-01-18 22:00:00 11.3 7 Sudoeste 32 Sur 0 -- -- 99
2020-01-18 21:00:00 11.4 10 Sudoeste 27 Oeste 0 -- -- 100
2020-01-18 20:00:00 11.3 11 Sudoeste 27 Sur 0 -- -- 100
2020-01-18 19:00:00 10.5 4 Sudoeste 23 Sur 0 -- -- 100
2020-01-18 18:00:00 10.1 5 Sur 23 Sudoeste 0 -- -- 100
2020-01-18 17:00:00 9.6 13 Sudoeste 24 Sur 0 -- -- 100
2020-01-18 16:00:00 9.3 13 Sur 30 Sur 0 -- -- 100
2020-01-18 15:00:00 8.9 16 Sur 36 Sur 0 -- -- 100
2020-01-18 14:00:00 8.8 20 Sur 42 Sudoeste 0 -- -- 99
2020-01-18 13:00:00 8.9 23 Sur 43 Sur 0 -- -- 98
2020-01-18 12:00:00 9 17 Sur 31 Sur 0.2 -- -- 96
2020-01-18 11:00:00 9.2 17 Sur 30 Sur 0.2 -- -- 93
2020-01-18 10:00:00 9.2 10 Sur 22 Sur 0.2 -- -- 94
2020-01-18 09:00:00 8.7 3 Sur 10 Sur 0.2 -- -- 92
2020-01-18 08:00:00 8.1 3 Sudeste 6 Sur 0.4 -- -- 92
2020-01-18 07:00:00 7.5 0 Calma 14 Este 0 -- -- 93
2020-01-18 06:00:00 8.4 0 Calma 10 Sudoeste 0 -- -- 89
2020-01-18 05:00:00 8 5 Sudoeste 15 Sudoeste 0 -- -- 89
2020-01-18 04:00:00 8.3 5 Sudoeste 11 Sudoeste 0 -- -- 88
2020-01-18 03:00:00 8.4 3 Sur 8 Sur 0 -- -- 88
2020-01-18 02:00:00 8 2 Norte 5 Norte 0 -- -- 90
2020-01-18 01:00:00 8.3 0 Calma 2 Sur 0 -- -- 89
2020-01-18 00:00:00 8.5 0 Calma 3 Sudeste 0 -- -- 86
2020-01-17 23:00:00 9 0 Calma 3 Nordeste 0 -- -- 85
2020-01-17 22:00:00 9.3 0 Calma 2 Oeste 0 -- -- 84
2020-01-17 21:00:00 9.4 0 Calma 5 Nordeste 0 -- -- 83
2020-01-17 20:00:00 9.9 0 Calma 4 Norte 0 -- -- 81
2020-01-17 19:00:00 10.5 0 Calma 4 Oeste 0 -- -- 77
2020-01-17 18:00:00 12.7 0 Calma 10 Oeste 0 -- -- 67
2020-01-17 17:00:00 14.5 2 Noroeste 15 Oeste 0 -- -- 62
2020-01-17 16:00:00 14 4 Noroeste 13 Noroeste 0 -- -- 64
2020-01-17 15:00:00 13.4 4 Noroeste 15 Noroeste 0 -- -- 65
2020-01-17 14:00:00 14.5 3 Noroeste 15 Oeste 0 -- -- 64
2020-01-17 13:00:00 13.1 5 Oeste 12 Oeste 0 -- -- 69
2020-01-17 12:00:00 11.9 4 Noroeste 15 Sudoeste 0 -- -- 77
2020-01-17 11:00:00 11.3 5 Sudoeste 13 Sudoeste 0 -- -- 82
2020-01-17 10:00:00 9.6 5 Sudoeste 12 Sudoeste 0 -- -- 88
2020-01-17 09:00:00 8.8 4 Sudoeste 15 Sudoeste 0 -- -- 83
2020-01-17 08:00:00 9 10 Sudoeste 14 Sudoeste 0 -- -- 79
2020-01-17 07:00:00 9.3 12 Sudoeste 15 Sudoeste 0 -- -- 76
2020-01-17 06:00:00 9.3 6 Sur 10 Sur 0 -- -- 72
2020-01-17 05:00:00 9.5 6 Sur 14 Sur 0 -- -- 67
2020-01-17 04:00:00 8.9 2 Sudeste 8 Sur 0 -- -- 72
2020-01-17 03:00:00 9.1 2 Norte 18 Norte 0 -- -- 77
2020-01-17 02:00:00 9.9 5 Oeste 12 Sur 0 -- -- 59
2020-01-17 01:00:00 10.2 6 Sudoeste 23 Sur 0 -- -- 58
2020-01-17 00:00:00 10.1 5 Sudoeste 10 Sudoeste 0 -- -- 57
2020-01-16 23:00:00 10.4 4 Sur 13 Sudoeste 0 -- -- 56
2020-01-16 22:00:00 10.1 6 Sudoeste 14 Sudoeste 0 -- -- 56
2020-01-16 21:00:00 10.8 6 Sudoeste 12 Sur 0 -- -- 54
2020-01-16 20:00:00 11.9 7 Sudoeste 18 Sudoeste 0 -- -- 51
2020-01-16 19:00:00 12.9 9 Sudoeste 25 Sudoeste 0 -- -- 46
2020-01-16 18:00:00 14.5 15 Sudoeste 36 Sur 0 -- -- 41
2020-01-16 17:00:00 15.9 20 Sudoeste 35 Sur 0 -- -- 35
2020-01-16 16:00:00 16.7 22 Sur 35 Sur 0 -- -- 37
2020-01-16 15:00:00 16.7 12 Sudoeste 24 Sudoeste 0 -- -- 46
2020-01-16 14:00:00 15.7 11 Sur 19 Sur 0 -- -- 52
2020-01-16 13:00:00 14.5 10 Sudoeste 18 Sur 0 -- -- 57
2020-01-16 12:00:00 12.5 8 Sur 13 Sur 0 -- -- 67
2020-01-16 11:00:00 10 3 Sur 6 Sur 0 -- -- 81
2020-01-16 10:00:00 7.1 0 Calma 4 Sur 0 -- -- 91
2020-01-16 09:00:00 6.6 0 Calma 4 Sudoeste 0 -- -- 91
2020-01-16 08:00:00 6.9 2 Sur 7 Sur 0 -- -- 90
2020-01-16 07:00:00 7.3 3 Sur 7 Sudoeste 0 -- -- 88
2020-01-16 06:00:00 8.2 5 Sudoeste 11 Sur 0 -- -- 86
2020-01-16 05:00:00 9.2 7 Sur 13 Sur 0 -- -- 82
2020-01-16 04:00:00 10.1 10 Sur 14 Sur 0 -- -- 79
2020-01-16 03:00:00 10.5 8 Sur 20 Sur 0 -- -- 78
2020-01-16 02:00:00 10.6 11 Sur 20 Sur 0 -- -- 79
2020-01-16 01:00:00 10.5 8 Sur 14 Sur 0 -- -- 81
2020-01-16 00:00:00 10.9 10 Sur 23 Sur 0 -- -- 80
2020-01-15 23:00:00 10.9 10 Sur 21 Sur 0 -- -- 82
2020-01-15 22:00:00 11.2 10 Sur 22 Sur 0 -- -- 80
2020-01-15 21:00:00 11.3 11 Sur 26 Sur 0 -- -- 76
2020-01-15 20:00:00 11.6 8 Sur 27 Sudoeste 0 -- -- 76
2020-01-15 19:00:00 12.1 15 Sur 24 Sudoeste 0 -- -- 73
2020-01-15 18:00:00 12.2 10 Sur 19 Sur 0 -- -- 72
2020-01-15 17:00:00 12.1 12 Sur 23 Sur 0 -- -- 73
2020-01-15 16:00:00 12 14 Sur 22 Sur 0 -- -- 73
2020-01-15 15:00:00 11.4 7 Sur 17 Sur 0 -- -- 74
2020-01-15 14:00:00 10.8 11 Sur 23 Sur 0 -- -- 71
2020-01-15 13:00:00 10.2 12 Sur 23 Sur 0 -- -- 71
2020-01-15 12:00:00 9.2 13 Sur 27 Sur 0 -- -- 73
2020-01-15 11:00:00 8.3 18 Sur 32 Sur 0 -- -- 76
2020-01-15 10:00:00 6.3 7 Sur 17 Sudoeste 0 -- -- 85
2020-01-15 09:00:00 5.2 10 Sudoeste 17 Sur 0 -- -- 88
2020-01-15 08:00:00 5.2 9 Sur 15 Sudoeste 0 -- -- 88
2020-01-15 07:00:00 5.7 10 Sudoeste 16 Sudoeste 0 -- -- 87
2020-01-15 06:00:00 7 6 Sur 26 Sur 0 -- -- 82
2020-01-15 05:00:00 7.5 17 Sur 31 Sur 0 -- -- 81
2020-01-15 04:00:00 7.4 15 Sur 27 Sur 0 -- -- 82
2020-01-15 03:00:00 7.6 13 Sur 27 Sudoeste 0 -- -- 78
2020-01-15 02:00:00 7.8 10 Sur 20 Sur 0 -- -- 77
2020-01-15 01:00:00 7.9 8 Sur 18 Sur 0 -- -- 75
2020-01-15 00:00:00 8.1 10 Sur 24 Sur 0 -- -- 75
2020-01-14 23:00:00 8.1 11 Sur 22 Sudoeste 0 -- -- 76
2020-01-14 22:00:00 8.3 14 Sur 25 Sur 0 -- -- 76
2020-01-14 21:00:00 8.5 12 Sur 28 Sur 0 -- -- 76
2020-01-14 20:00:00 10 10 Sudoeste 19 Sudoeste 0 -- -- 67
2020-01-14 19:00:00 9.9 6 Oeste 14 Sudoeste 0 -- -- 68
2020-01-14 18:00:00 10.1 3 Sur 10 Sur 0 -- -- 67
2020-01-14 17:00:00 11.2 7 Sudoeste 16 Sur 0 -- -- 64
2020-01-14 16:00:00 11.3 10 Sudoeste 16 Sudoeste 0 -- -- 64
2020-01-14 15:00:00 10.7 7 Sur 19 Sudoeste 0 -- -- 66
2020-01-14 14:00:00 10.4 12 Sudoeste 17 Sudoeste 0 -- -- 67
2020-01-14 13:00:00 9.8 8 Sur 12 Sur 0 -- -- 72
2020-01-14 12:00:00 7.6 5 Sur 8 Sur 0 -- -- 79
2020-01-14 11:00:00 4.5 0 Calma 3 Sur 0 -- -- 88
2020-01-14 10:00:00 1.2 0 Calma 2 Sur 0 -- -- 95
2020-01-14 09:00:00 0.2 0 Calma 3 Este 0 -- -- 95
2020-01-14 08:00:00 0.6 0 Calma 4 Sudoeste 0 -- -- 95
2020-01-14 07:00:00 0.3 0 Calma 3 Sur 0 -- -- 93
2020-01-14 06:00:00 0.8 0 Calma 2 Norte 0 -- -- 94
2020-01-14 05:00:00 1.2 0 Calma 2 Sudeste 0 -- -- 91
2020-01-14 04:00:00 1.8 0 Calma 2 Sudeste 0 -- -- 90
2020-01-14 03:00:00 2.2 0 Calma 4 Norte 0 -- -- 88
2020-01-14 02:00:00 3.2 0 Calma 8 Sur 0 -- -- 85
2020-01-14 01:00:00 3.9 4 Sur 7 Sur 0 -- -- 83
2020-01-14 00:00:00 4.3 0 Calma 4 Sudoeste 0 -- -- 80
2020-01-13 23:00:00 4.9 2 Sur 6 Sur 0 -- -- 78
2020-01-13 22:00:00 5.3 0 Calma 8 Nordeste 0 -- -- 76
2020-01-13 21:00:00 6.8 0 Calma 3 Norte 0 -- -- 68
2020-01-13 20:00:00 7 0 Calma 10 Nordeste 0 -- -- 71
2020-01-13 19:00:00 8 0 Calma 2 Oeste 0 -- -- 67
2020-01-13 18:00:00 9.5 0 Calma 5 Noroeste 0 -- -- 63
2020-01-13 17:00:00 11.9 2 Oeste 8 Norte 0 -- -- 54
2020-01-13 16:00:00 12.5 3 Noroeste 11 Oeste 0 -- -- 49
2020-01-13 15:00:00 12.2 7 Sudoeste 18 Sudoeste 0 -- -- 58
2020-01-13 14:00:00 10.4 6 Sur 14 Sur 0 -- -- 63
2020-01-13 13:00:00 8.7 8 Sur 13 Sur 0 -- -- 68
2020-01-13 12:00:00 7.4 4 Sur 7 Sur 0 -- -- 79
2020-01-13 11:00:00 4.4 0 Calma 4 Sudoeste 0 -- -- 88
2020-01-13 10:00:00 1.4 0 Calma 0 Calma 0 -- -- 95
2020-01-13 09:00:00 0.8 0 Calma 2 Nordeste 0 -- -- 95
2020-01-13 08:00:00 1.1 0 Calma 2 Sur 0 -- -- 95
2020-01-13 07:00:00 1 0 Calma 2 Nordeste 0 -- -- 95
2020-01-13 06:00:00 1.1 0 Calma 0 Calma 0 -- -- 94
2020-01-13 05:00:00 1.9 0 Calma 2 Sudeste 0 -- -- 93
2020-01-13 04:00:00 2.3 0 Calma 2 Sudeste 0 -- -- 92
2020-01-13 03:00:00 3 2 Sur 4 Sur 0 -- -- 89
2020-01-13 02:00:00 4.1 0 Calma 4 Nordeste 0 -- -- 86
2020-01-13 01:00:00 4.4 0 Calma 2 Norte 0 -- -- 83
2020-01-13 00:00:00 5.3 0 Calma 3 Nordeste 0 -- -- 80
2020-01-12 23:00:00 5.9 0 Calma 0 Calma 0 -- -- 78
2020-01-12 22:00:00 6.8 0 Calma 3 Norte 0 -- -- 75
2020-01-12 21:00:00 7.6 0 Calma 6 Norte 0 -- -- 72
2020-01-12 20:00:00 8.1 0 Calma 7 Nordeste 0 -- -- 71
2020-01-12 19:00:00 8.8 0 Calma 4 Oeste 0 -- -- 65
2020-01-12 18:00:00 11.5 0 Calma 10 Noroeste 0 -- -- 55
2020-01-12 17:00:00 13.7 4 Oeste 12 Sudoeste 0 -- -- 49
2020-01-12 16:00:00 15.1 4 Oeste 9 Oeste 0 -- -- 45
2020-01-12 15:00:00 14 4 Oeste 12 Sur 0 -- -- 48
2020-01-12 14:00:00 12.8 6 Sudoeste 11 Sudoeste 0 -- -- 59
2020-01-12 13:00:00 10.8 5 Sur 10 Sur 0 -- -- 67
2020-01-12 12:00:00 8.7 4 Sudoeste 6 Sur 0 -- -- 73
2020-01-12 11:00:00 5.9 0 Calma 3 Sudoeste 0 -- -- 83
2020-01-12 10:00:00 1.9 0 Calma 2 Sur 0 -- -- 95
2020-01-12 09:00:00 0.9 0 Calma 0 Calma 0 -- -- 94
2020-01-12 08:00:00 1.5 0 Calma 2 Nordeste 0 -- -- 92
2020-01-12 07:00:00 1.7 0 Calma 2 Nordeste 0 -- -- 92
2020-01-12 06:00:00 2 0 Calma 2 Nordeste 0 -- -- 89
2020-01-12 05:00:00 2.7 0 Calma 2 Sur 0 -- -- 88
2020-01-12 04:00:00 3.3 0 Calma 2 Oeste 0 -- -- 86
2020-01-12 03:00:00 4 0 Calma 2 Sur 0 -- -- 81
2020-01-12 02:00:00 4.8 0 Calma 2 Norte 0 -- -- 78
2020-01-12 01:00:00 5.6 0 Calma 5 Nordeste 0 -- -- 75
2020-01-12 00:00:00 5.7 4 Nordeste 6 Nordeste 0 -- -- 75
2020-01-11 23:00:00 6.2 0 Calma 7 Nordeste 0 -- -- 73
2020-01-11 22:00:00 6.8 0 Calma 4 Este 0 -- -- 71
2020-01-11 21:00:00 7.5 0 Calma 8 Nordeste 0 -- -- 69
2020-01-11 20:00:00 8.2 4 Nordeste 9 Nordeste 0 -- -- 66
2020-01-11 19:00:00 9.2 4 Este 9 Este 0 -- -- 62
2020-01-11 18:00:00 11.7 4 Este 14 Este 0 -- -- 54
2020-01-11 17:00:00 13 6 Nordeste 16 Este 0 -- -- 49
2020-01-11 16:00:00 13.1 7 Nordeste 15 Nordeste 0 -- -- 48
2020-01-11 15:00:00 14 4 Este 14 Sudeste 0 -- -- 45
2020-01-11 14:00:00 12.6 5 Este 14 Sudeste 0 -- -- 54
2020-01-11 13:00:00 11.6 4 Sudeste 12 Este 0 -- -- 55
2020-01-11 12:00:00 9.2 5 Sur 9 Sur 0 -- -- 62
2020-01-11 11:00:00 6.1 3 Nordeste 12 Este 0 -- -- 69
2020-01-11 10:00:00 3.4 3 Este 10 Este 0 -- -- 79
2020-01-11 09:00:00 1.9 4 Nordeste 6 Nordeste 0 -- -- 83
2020-01-11 08:00:00 2.5 0 Calma 5 Este 0 -- -- 80
2020-01-11 07:00:00 3.1 2 Nordeste 3 Nordeste 0 -- -- 77
2020-01-11 06:00:00 3 0 Calma 6 Nordeste 0 -- -- 77
2020-01-11 05:00:00 4.2 4 Nordeste 8 Este 0 -- -- 72
2020-01-11 04:00:00 4.5 4 Este 5 Este 0 -- -- 70
2020-01-11 03:00:00 5.1 0 Calma 12 Nordeste 0 -- -- 68
2020-01-11 02:00:00 6 7 Nordeste 12 Nordeste 0 -- -- 64
2020-01-11 01:00:00 6.1 5 Nordeste 13 Nordeste 0 -- -- 64
2020-01-11 00:00:00 6.1 3 Nordeste 8 Nordeste 0 -- -- 64
2020-01-10 23:00:00 6.2 0 Calma 6 Nordeste 0 -- -- 63
2020-01-10 22:00:00 7 3 Este 9 Norte 0 -- -- 60
2020-01-10 21:00:00 7.9 4 Nordeste 16 Nordeste 0 -- -- 56
2020-01-10 20:00:00 8.7 11 Nordeste 19 Nordeste 0 -- -- 54
2020-01-10 19:00:00 9.3 8 Nordeste 19 Norte 0 -- -- 51
2020-01-10 18:00:00 10.7 12 Nordeste 40 Nordeste 0 -- -- 45
2020-01-10 17:00:00 12.6 14 Nordeste 30 Nordeste 0 -- -- 41
2020-01-10 16:00:00 13 12 Nordeste 23 Nordeste 0 -- -- 46
2020-01-10 15:00:00 13 10 Nordeste 24 Nordeste 0 -- -- 47
2020-01-10 14:00:00 12.4 12 Nordeste 23 Nordeste 0 -- -- 49
2020-01-10 13:00:00 11.5 8 Este 21 Nordeste 0 -- -- 56
2020-01-10 12:00:00 9.9 8 Nordeste 18 Nordeste 0 -- -- 66
2020-01-10 11:00:00 8.3 8 Nordeste 17 Este 0 -- -- 73
2020-01-10 10:00:00 6.9 3 Nordeste 11 Norte 0 -- -- 96
2020-01-10 09:00:00 6.5 3 Norte 8 Norte 0 -- -- 94
2020-01-10 08:00:00 6.7 0 Calma 4 Noroeste 0 -- -- 97
2020-01-10 07:00:00 7.1 0 Calma 3 Este 0 -- -- 98
2020-01-10 06:00:00 6.9 0 Calma 4 Nordeste 0 -- -- 98
2020-01-10 05:00:00 6.9 0 Calma 4 Sur 0 -- -- 97
2020-01-10 04:00:00 7.3 0 Calma 5 Noroeste 0 -- -- 95
2020-01-10 03:00:00 7.7 0 Calma 3 Oeste 0 -- -- 92
2020-01-10 02:00:00 7.5 0 Calma 5 Oeste 0 -- -- 91
2020-01-10 01:00:00 7.4 0 Calma 9 Sudoeste 0 -- -- 90
2020-01-10 00:00:00 7.7 2 Noroeste 9 Oeste 0 -- -- 89
2020-01-09 23:00:00 8 3 Noroeste 10 Oeste 0 -- -- 89
2020-01-09 22:00:00 8 0 Calma 6 Oeste 0 -- -- 89
2020-01-09 21:00:00 8.5 0 Calma 7 Oeste 0 -- -- 88
2020-01-09 20:00:00 9 0 Calma 9 Oeste 0 -- -- 84
2020-01-09 19:00:00 9.9 0 Calma 8 Noroeste 0 -- -- 77
2020-01-09 18:00:00 12.4 2 Noroeste 11 Sudoeste 0 -- -- 61
2020-01-09 17:00:00 13.8 7 Sudoeste 12 Sudoeste 0 -- -- 57
2020-01-09 16:00:00 14.3 5 Sudoeste 9 Oeste 0 -- -- 56
2020-01-09 15:00:00 14 4 Oeste 11 Oeste 0 -- -- 55
2020-01-09 14:00:00 12.4 5 Oeste 14 Oeste 0 -- -- 62
2020-01-09 13:00:00 11 9 Sur 16 Sur 0 -- -- 68
2020-01-09 12:00:00 9.2 7 Sur 13 Sudoeste 0 -- -- 75
2020-01-09 11:00:00 6.6 0 Calma 3 Oeste 0 -- -- 86
2020-01-09 10:00:00 3.6 0 Calma 2 Nordeste 0 -- -- 91
2020-01-09 09:00:00 3.1 0 Calma 2 Norte 0 -- -- 91
2020-01-09 08:00:00 3.4 0 Calma 2 Nordeste 0 -- -- 90
2020-01-09 07:00:00 3.6 0 Calma 0 Calma 0 -- -- 89
2020-01-09 06:00:00 3.9 0 Calma 2 Sudeste 0 -- -- 87
2020-01-09 05:00:00 4.7 0 Calma 3 Nordeste 0 -- -- 84
2020-01-09 04:00:00 5.1 0 Calma 2 Sur 0 -- -- 83
2020-01-09 03:00:00 6.9 0 Calma 5 Nordeste 0 -- -- 76
2020-01-09 02:00:00 7.7 0 Calma 2 Este 0 -- -- 72
2020-01-09 01:00:00 8.1 0 Calma 2 Nordeste 0 -- -- 75
2020-01-09 00:00:00 8.6 0 Calma 4 Nordeste 0 -- -- 73
2020-01-08 23:00:00 9.3 0 Calma 3 Nordeste 0 -- -- 70
2020-01-08 22:00:00 10.1 0 Calma 4 Norte 0 -- -- 68
2020-01-08 21:00:00 10.8 0 Calma 4 Norte 0 -- -- 67
2020-01-08 20:00:00 11.1 2 Norte 3 Norte 0 -- -- 62
2020-01-08 19:00:00 12.4 0 Calma 3 Norte 0 -- -- 58
2020-01-08 18:00:00 15.1 0 Calma 6 Oeste 0 -- -- 55
2020-01-08 17:00:00 17.5 3 Sudoeste 8 Sur 0 -- -- 48
2020-01-08 16:00:00 17.7 6 Sur 9 Sur 0 -- -- 47
2020-01-08 15:00:00 16.9 6 Sur 10 Sur 0 -- -- 52
2020-01-08 14:00:00 15.9 2 Norte 9 Sudoeste 0 -- -- 59
2020-01-08 13:00:00 13.2 4 Sur 8 Sudoeste 0 -- -- 66
2020-01-08 12:00:00 10.6 4 Sudoeste 5 Sudoeste 0 -- -- 73
2020-01-08 11:00:00 7.9 0 Calma 3 Sudoeste 0 -- -- 83
2020-01-08 10:00:00 4 0 Calma 3 Nordeste 0 -- -- 93
2020-01-08 09:00:00 2.6 0 Calma 2 Sudoeste 0 -- -- 93
2020-01-08 08:00:00 3.5 2 Nordeste 4 Nordeste 0 -- -- 92
2020-01-08 07:00:00 4 0 Calma 2 Oeste 0 -- -- 90
2020-01-08 06:00:00 4.1 0 Calma 3 Nordeste 0 -- -- 89
2020-01-08 05:00:00 4.4 0 Calma 4 Nordeste 0 -- -- 90
2020-01-08 04:00:00 4.7 0 Calma 2 Sur 0 -- -- 90
2020-01-08 03:00:00 5.6 0 Calma 0 Calma 0 -- -- 89
2020-01-08 02:00:00 6.5 0 Calma 2 Norte 0 -- -- 86
2020-01-08 01:00:00 7.4 0 Calma 3 Norte 0 -- -- 82
2020-01-08 00:00:00 8.1 0 Calma 3 Norte 0 -- -- 80
2020-01-07 23:00:00 9.1 0 Calma 2 Norte 0 -- -- 76
2020-01-07 22:00:00 9.6 0 Calma 5 Norte 0 -- -- 74
2020-01-07 21:00:00 10.2 0 Calma 6 Norte 0 -- -- 72
2020-01-07 20:00:00 11 3 Norte 8 Norte 0 -- -- 66
2020-01-07 19:00:00 11.8 2 Norte 6 Norte 0 -- -- 65
2020-01-07 18:00:00 14.8 0 Calma 5 Oeste 0 -- -- 58
2020-01-07 17:00:00 18.5 2 Oeste 6 Norte 0 -- -- 44
2020-01-07 16:00:00 18.2 2 Oeste 6 Oeste 0 -- -- 49
2020-01-07 15:00:00 16.5 2 Norte 9 Nordeste 0 -- -- 50
2020-01-07 14:00:00 14.7 4 Nordeste 10 Nordeste 0 -- -- 54
2020-01-07 13:00:00 13.4 3 Nordeste 8 Este 0 -- -- 58
2020-01-07 12:00:00 10.2 4 Nordeste 9 Este 0 -- -- 70
2020-01-07 11:00:00 8.4 3 Sudoeste 6 Sur 0 -- -- 78
2020-01-07 10:00:00 4.9 0 Calma 5 Nordeste 0 -- -- 90
2020-01-07 09:00:00 4.3 0 Calma 5 Este 0 -- -- 89
2020-01-07 08:00:00 4.9 2 Nordeste 5 Nordeste 0 -- -- 88
2020-01-07 07:00:00 4.8 0 Calma 6 Nordeste 0 -- -- 89
2020-01-07 06:00:00 4.3 0 Calma 8 Este 0 -- -- 89
2020-01-07 05:00:00 4.4 0 Calma 6 Nordeste 0 -- -- 89
2020-01-07 04:00:00 5.3 3 Nordeste 7 Este 0 -- -- 90
2020-01-07 03:00:00 6 3 Este 5 Nordeste 0 -- -- 87
2020-01-07 02:00:00 5.7 2 Nordeste 5 Nordeste 0 -- -- 90
2020-01-07 01:00:00 6.1 0 Calma 2 Sudeste 0 -- -- 87
2020-01-07 00:00:00 7.1 0 Calma 2 Sur 0 -- -- 83
2020-01-06 23:00:00 8.2 0 Calma 4 Norte 0 -- -- 80
2020-01-06 22:00:00 8.7 0 Calma 2 Norte 0 -- -- 78
2020-01-06 21:00:00 9.1 0 Calma 3 Norte 0 -- -- 76
2020-01-06 20:00:00 9.7 0 Calma 3 Norte 0 -- -- 72
2020-01-06 19:00:00 11 0 Calma 2 Noroeste 0 -- -- 69
2020-01-06 18:00:00 13.8 0 Calma 3 Sur 0 -- -- 58
2020-01-06 17:00:00 16.2 3 Sudoeste 8 Oeste 0 -- -- 49
2020-01-06 16:00:00 15.7 4 Sudoeste 8 Sudoeste 0 -- -- 52
2020-01-06 15:00:00 14.7 5 Sur 10 Sur 0 -- -- 58
2020-01-06 14:00:00 13 4 Sur 9 Sur 0 -- -- 65
2020-01-06 13:00:00 11.1 4 Sur 9 Sur 0 -- -- 72
2020-01-06 12:00:00 8.7 3 Sudoeste 5 Sur 0 -- -- 82
2020-01-06 11:00:00 6.6 0 Calma 3 Sur 0 -- -- 89
2020-01-06 10:00:00 4 0 Calma 3 Nordeste 0 -- -- 95